Time;durP1;ratioP1;P1;durP2;ratioP2;P2;SDS_P1;SDS_P2;PMS_P1;PMS_P2;Temp;Humidity;BMP_temperature;BMP_pressure;BME280_temperature;BME280_humidity;BME280_pressure;Samples;Min_cycle;Max_cycle;Signal;HPM_P1;HPM_P2
2022/12/16 00:02:22;;;;;;;120.47;61.73;;;;;;;5.11;100.00;94741.34;5073602;28;20461;-74
2022/12/16 00:04:50;;;;;;;137.40;66.30;;;;;;;5.10;100.00;94743.09;5073774;28;20454;-73
2022/12/16 00:07:17;;;;;;;122.33;59.37;;;;;;;5.13;100.00;94744.66;5038545;28;20456;-73
2022/12/16 00:09:43;;;;;;;123.27;62.37;;;;;;;5.10;100.00;94745.72;5021840;28;20444;-74
2022/12/16 00:12:10;;;;;;;116.00;60.67;;;;;;;5.10;100.00;94735.31;5073599;28;20441;-73
2022/12/16 00:14:37;;;;;;;115.07;65.13;;;;;;;5.16;100.00;94741.88;5073546;28;20486;-73
2022/12/16 00:17:04;;;;;;;121.87;61.43;;;;;;;5.16;100.00;94741.88;5073778;28;20452;-73
2022/12/16 00:19:31;;;;;;;123.67;61.70;;;;;;;5.18;100.00;94746.03;5073538;28;20452;-73
2022/12/16 00:21:59;;;;;;;129.63;62.20;;;;;;;5.09;100.00;94732.81;5073473;28;20481;-73
2022/12/16 00:24:26;;;;;;;143.57;66.20;;;;;;;5.11;100.00;94723.13;5073440;28;20801;-73
2022/12/16 00:26:53;;;;;;;135.40;63.57;;;;;;;5.09;100.00;94733.63;5073260;28;20485;-73
2022/12/16 00:29:20;;;;;;;140.70;65.67;;;;;;;5.19;100.00;94741.66;5021606;28;20445;-74
2022/12/16 00:31:47;;;;;;;133.30;66.57;;;;;;;5.20;100.00;94725.97;5073353;28;20498;-73
2022/12/16 00:34:14;;;;;;;134.47;69.20;;;;;;;5.26;100.00;94732.53;5072967;28;20564;-73
2022/12/16 00:36:40;;;;;;;134.67;73.67;;;;;;;5.31;100.00;94733.06;5021557;28;20446;-73
2022/12/16 00:39:09;;;;;;;184.03;78.73;;;;;;;5.37;100.00;94744.81;5073144;28;20440;-73
2022/12/16 00:41:36;;;;;;;139.27;68.40;;;;;;;5.39;100.00;94740.34;5021537;28;20445;-74
2022/12/16 00:44:04;;;;;;;141.13;76.27;;;;;;;5.43;100.00;94740.03;5072883;28;20832;-73
2022/12/16 00:46:31;;;;;;;173.43;84.57;;;;;;;5.40;100.00;94732.44;5072945;28;20500;-73
2022/12/16 00:48:57;;;;;;;144.23;74.83;;;;;;;5.44;100.00;94728.69;5073406;28;20449;-73
2022/12/16 00:51:24;;;;;;;166.73;81.53;;;;;;;5.49;100.00;94729.22;5020761;28;20850;-73
2022/12/16 00:53:51;;;;;;;167.23;75.73;;;;;;;5.53;100.00;94725.47;5073000;28;20444;-73
2022/12/16 00:56:19;;;;;;;148.57;73.87;;;;;;;5.52;100.00;94713.41;5072732;28;20466;-73
2022/12/16 00:58:47;;;;;;;169.00;77.57;;;;;;;5.36;100.00;94728.38;5073264;28;20578;-74
2022/12/16 01:01:13;;;;;;;159.60;76.37;;;;;;;5.40;100.00;94716.00;5037147;28;20443;-74
2022/12/16 01:03:40;;;;;;;173.23;78.53;;;;;;;5.44;100.00;94720.88;5072831;28;20499;-73
2022/12/16 01:06:09;;;;;;;175.77;85.33;;;;;;;5.44;100.00;94715.66;5072928;28;20481;-74
2022/12/16 01:08:35;;;;;;;217.97;87.33;;;;;;;5.39;100.00;94725.56;5072607;28;20485;-74
2022/12/16 01:11:02;;;;;;;205.40;88.90;;;;;;;5.23;100.00;94722.34;5071590;28;20936;-74
2022/12/16 01:13:31;;;;;;;243.70;86.17;;;;;;;5.19;100.00;94726.88;5072760;28;20799;-75
2022/12/16 01:16:01;;;;;;;239.27;90.60;;;;;;;5.14;100.00;94722.94;5072254;28;20452;-75
2022/12/16 01:18:27;;;;;;;320.03;96.63;;;;;;;5.05;100.00;94703.56;5072460;28;20516;-73
2022/12/16 01:20:54;;;;;;;246.67;93.47;;;;;;;5.00;100.00;94728.22;5072571;28;20473;-74
2022/12/16 01:23:21;;;;;;;230.57;91.57;;;;;;;5.05;100.00;94724.38;5072571;28;20830;-75
2022/12/16 01:25:52;;;;;;;207.23;90.93;;;;;;;5.14;100.00;94730.72;5072635;28;20579;-73
2022/12/16 01:28:19;;;;;;;228.07;86.27;;;;;;;5.24;100.00;94724.00;5072636;28;20751;-72
2022/12/16 01:30:47;;;;;;;301.03;89.90;;;;;;;5.24;100.00;94724.84;5072620;28;20457;-72
2022/12/16 01:33:14;;;;;;;262.87;84.60;;;;;;;5.22;100.00;94699.88;5072373;28;20448;-72
2022/12/16 01:35:42;;;;;;;239.87;82.97;;;;;;;5.10;100.00;94714.50;5072393;28;20444;-72
2022/12/16 01:38:08;;;;;;;217.47;73.80;;;;;;;5.15;100.00;94699.41;5072149;28;20992;-72
2022/12/16 01:40:35;;;;;;;152.43;71.03;;;;;;;5.16;100.00;94718.44;5072305;28;20452;-72
2022/12/16 01:43:02;;;;;;;126.20;68.93;;;;;;;5.24;100.00;94722.22;5072089;28;20467;-73
2022/12/16 01:45:32;;;;;;;192.13;71.80;;;;;;;5.32;100.00;94706.09;5072378;28;20459;-72
2022/12/16 01:48:06;;;;;;;194.53;72.20;;;;;;;5.37;100.00;94697.97;5072169;28;21019;-74
2022/12/16 01:50:33;;;;;;;177.30;67.17;;;;;;;5.39;100.00;94696.94;5072272;28;20453;-74
2022/12/16 01:53:05;;;;;;;219.97;70.83;;;;;;;5.37;100.00;94691.00;5072212;28;20441;-74
2022/12/16 01:55:37;;;;;;;261.57;73.23;;;;;;;5.35;100.00;94694.66;5072142;28;20935;-74
2022/12/16 01:58:08;;;;;;;287.43;77.87;;;;;;;5.34;100.00;94674.78;5021540;28;20511;-74
2022/12/16 02:00:37;;;;;;;227.30;75.17;;;;;;;5.36;100.00;94702.34;5072303;28;20449;-72
2022/12/16 02:03:06;;;;;;;219.50;72.70;;;;;;;5.29;100.00;94690.72;5071951;28;20455;-74
2022/12/16 02:05:35;;;;;;;203.27;73.67;;;;;;;5.25;100.00;94710.06;5072050;28;20456;-74
2022/12/16 02:08:10;;;;;;;274.50;70.30;;;;;;;5.28;100.00;94705.47;5072020;28;20474;-74
2022/12/16 02:10:52;;;;;;;230.27;68.83;;;;;;;5.10;100.00;94691.09;5072038;28;20486;-74
2022/12/16 02:13:26;;;;;;;139.07;62.33;;;;;;;5.22;100.00;94694.66;5024241;28;20448;-75
2022/12/16 02:16:03;;;;;;;152.33;62.30;;;;;;;5.25;100.00;94668.44;5071994;28;20945;-73
2022/12/16 02:18:42;;;;;;;112.53;57.20;;;;;;;5.26;100.00;94668.34;5019923;28;20448;-75
2022/12/16 02:21:38;;;;;;;115.27;55.90;;;;;;;5.25;100.00;94658.03;5071807;28;20456;-73
2022/12/16 02:24:36;;;;;;;112.77;55.80;;;;;;;5.27;100.00;94645.75;5075412;28;20786;-73
2022/12/16 02:27:38;;;;;;;85.83;49.10;;;;;;;5.33;100.00;94660.94;5075683;28;20481;-73
2022/12/16 02:30:28;;;;;;;89.20;46.80;;;;;;;5.40;100.00;94667.38;5075390;28;20494;-72
2022/12/16 02:33:06;;;;;;;106.03;48.43;;;;;;;5.41;100.00;94655.22;5075360;28;20441;-73
2022/12/16 02:35:39;;;;;;;151.60;48.23;;;;;;;5.45;100.00;94667.91;5039869;28;20443;-73
2022/12/16 02:38:17;;;;;;;155.00;46.63;;;;;;;5.40;100.00;94630.13;5075228;28;20763;-72
2022/12/16 02:40:51;;;;;;;108.17;44.67;;;;;;;5.39;100.00;94663.13;5075301;28;20441;-72
2022/12/16 02:43:31;;;;;;;122.20;43.80;;;;;;;5.38;100.00;94677.06;5075459;28;20452;-73
2022/12/16 02:45:59;;;;;;;191.17;47.50;;;;;;;5.35;100.00;94653.88;5023364;28;20492;-72
2022/12/16 02:48:26;;;;;;;125.97;47.23;;;;;;;5.24;100.00;94665.00;5040145;28;20454;-72
2022/12/16 02:50:53;;;;;;;94.80;45.70;;;;;;;5.37;100.00;94688.41;5075055;28;20917;-73
2022/12/16 02:53:21;;;;;;;119.17;47.73;;;;;;;5.02;100.00;94669.16;5075181;28;20477;-73
2022/12/16 02:55:57;;;;;;;94.77;45.47;;;;;;;5.23;100.00;94696.31;5074932;28;20444;-72
2022/12/16 02:58:29;;;;;;;100.27;43.30;;;;;;;5.32;100.00;94711.31;5075099;28;20537;-73
2022/12/16 03:01:04;;;;;;;126.20;40.97;;;;;;;5.38;100.00;94718.69;5074767;28;20441;-73
2022/12/16 03:03:37;;;;;;;82.67;42.83;;;;;;;5.46;100.00;94724.22;5075062;28;20889;-73
2022/12/16 03:06:05;;;;;;;94.37;43.40;;;;;;;5.46;100.00;94708.59;5074978;28;20492;-72
2022/12/16 03:08:36;;;;;;;84.53;41.10;;;;;;;5.43;100.00;94734.00;5074894;28;20465;-73
2022/12/16 03:11:07;;;;;;;67.90;36.50;;;;;;;5.44;100.00;94710.47;5074871;28;20441;-72
2022/12/16 03:13:39;;;;;;;68.30;37.60;;;;;;;5.43;100.00;94719.22;5074891;28;20448;-73
2022/12/16 03:16:11;;;;;;;70.23;36.87;;;;;;;5.48;100.00;94696.31;5074587;28;20446;-73
2022/12/16 03:18:40;;;;;;;85.53;38.87;;;;;;;5.53;100.00;94693.41;5074648;28;20437;-73
2022/12/16 03:21:09;;;;;;;73.13;38.20;;;;;;;5.49;100.00;94689.34;5074469;28;20446;-72
2022/12/16 03:23:43;;;;;;;68.30;41.43;;;;;;;5.44;100.00;94686.22;5075149;28;20483;-72
2022/12/16 03:26:16;;;;;;;82.13;40.13;;;;;;;5.35;100.00;94682.47;5074413;28;20522;-72
2022/12/16 03:28:49;;;;;;;91.57;39.23;;;;;;;5.41;100.00;94660.41;5073965;28;20440;-72
2022/12/16 03:31:30;;;;;;;65.33;37.20;;;;;;;5.48;100.00;94672.88;5073580;28;20452;-73
2022/12/16 03:34:03;;;;;;;106.73;40.93;;;;;;;5.38;100.00;94658.84;5072935;28;21025;-75
2022/12/16 03:36:35;;;;;;;71.33;37.27;;;;;;;5.50;100.00;94672.81;5073765;28;20437;-73
2022/12/16 03:39:04;;;;;;;71.47;40.43;;;;;;;5.56;100.00;94673.22;5021571;28;20433;-73
2022/12/16 03:41:32;;;;;;;72.93;40.20;;;;;;;5.67;100.00;94674.25;5073736;28;20794;-72
2022/12/16 03:43:59;;;;;;;71.87;38.80;;;;;;;5.70;100.00;94663.63;5074431;28;20437;-72
2022/12/16 03:46:28;;;;;;;118.60;43.73;;;;;;;5.63;100.00;94633.75;5074472;28;21054;-74
2022/12/16 03:48:55;;;;;;;93.73;43.47;;;;;;;5.67;100.00;94654.25;5038256;28;20430;-73
2022/12/16 03:51:22;;;;;;;93.37;41.73;;;;;;;5.64;100.00;94677.06;5073417;28;20941;-73
2022/12/16 03:53:48;;;;;;;95.20;43.87;;;;;;;5.71;100.00;94683.50;5073305;28;20457;-72
2022/12/16 03:56:15;;;;;;;132.30;53.40;;;;;;;5.70;100.00;94706.09;5073372;28;20442;-72
2022/12/16 03:58:42;;;;;;;153.90;51.87;;;;;;;5.48;100.00;94719.72;5073227;28;20560;-73
2022/12/16 04:01:09;;;;;;;117.83;48.30;;;;;;;5.45;100.00;94717.34;5073292;28;20490;-73
2022/12/16 04:03:38;;;;;;;91.07;46.30;;;;;;;5.46;100.00;94724.22;5073502;28;20456;-71
2022/12/16 04:06:05;;;;;;;137.83;51.77;;;;;;;5.53;100.00;94711.63;5073377;28;20441;-73
2022/12/16 04:08:32;;;;;;;98.60;50.53;;;;;;;5.54;100.00;94714.13;5072922;28;20446;-72
2022/12/16 04:24:55;;;;;;;96.70;38.80;;;;;;;5.66;100.00;94691.63;5072664;28;20575;-73
2022/12/16 04:27:26;;;;;;;68.00;36.80;;;;;;;5.68;100.00;94717.56;5072724;28;20509;-73
